EKSN

Sindal Airport

Sindal, Denmark
METAR EKSN 231050Z VRB02KT CAVOK 23/06 Q1025
Observed Flight Rules
May-23 @ 10:50 UTC (12 minutes ago) Visual Flight Rules
Wind Visibility Clouds
Variable at 2 knots 10,000+ meters
  • Clear skies
Temperatures Readings
Current 23°C / 73°F
Dewpoint 6°C / 43°F
Humidity 33%
Altimeter 30.27" Hg
Pressure 1025 hPa
Elevation 28
METAR EKSN 231050Z VRB02KT CAVOK 23/06 Q1025
Observed Flight Rules
May-23 @ 10:50 UTC
(12 minutes ago)
VFR
Wind Visibility
Variable at 2 knots 10,000+ meters
Clouds
  • Clear skies
Temperature Dewpoint
23°C / 73°F 6°C / 43°F
Humidity Altimeter Pressure
33% 30.27" Hg 1025 hPa